Steeltown, Texas
Current Conditions -  °F | °C
As of 5:53 AM on Thursday 27 Nov 2014 (Local Time) from KBPT Reporting Station
Clear Clear  
Wind Chill: 42°   Ceiling: Unl
Heat Index: 46°   Visibility: 10mi
Dew Point: 38°   Wind: 7mph
Humidity: 73%   Direction: 360°N
Pressure: 30.42"   Gusts: NA
Location:  29.9495°N, 93.9207°W
Report Text: KBPT 271153Z 36006KT 10SM CLR 08/03 A3042 RMK AO2 SLP301 T00780033 10100 20050 53021
Loading
Personal Weather Stations






























Interactive Weather Map New forecast layout! Learn more

10-Day Weather Forecast

Advertisements
Track Severe Weather on mobile